ADDS METAR Data INFO
IDs: Format: Raw Decoded Include TAF

Data at: 2053 UTC 24 Jun 2018

KUVA 242035Z AUTO 14019G24KT 10SM CLR 38/18 A2981 RMK AO2 T03780177
KUVA 242015Z AUTO 14014G19KT 10SM CLR 38/18 A2981 RMK AO2 T03750183
KUVA 241955Z AUTO 14013G20KT 10SM CLR 38/19 A2982 RMK AO2 T03760185
KUVA 241935Z AUTO 12009G19KT 10SM CLR 36/19 A2982 RMK AO2 T03630189
KUVA 241915Z AUTO 14012G20KT 10SM CLR 36/19 A2983 RMK AO2 T03610193
KUVA 241855Z AUTO 14015G20KT 10SM CLR 35/20 A2983 RMK AO2 T03540195
KUVA 241835Z AUTO 13010G18KT 10SM CLR 35/20 A2984 RMK AO2 T03480199
KUVA 241815Z AUTO 15010G23KT 10SM CLR 34/21 A2984 RMK AO2 T03400205
KUVA 241755Z AUTO 16011G15KT 10SM CLR 34/21 A2984 RMK AO2 T03390209 10339 20242
KUVA 241735Z AUTO 20007KT 10SM CLR 33/21 A2985 RMK AO2 T03260210
KUVA 241715Z AUTO 15010G14KT 10SM CLR 32/21 A2985 RMK AO2 T03230210
KUVA 241655Z AUTO 14007G15KT 100V200 10SM CLR 32/21 A2985 RMK AO2 T03150211
KUVA 241635Z AUTO 19010G14KT 10SM CLR 31/21 A2985 RMK AO2 T03130210
KUVA 241615Z AUTO 16007G14KT 10SM CLR 31/21 A2985 RMK AO2 T03080211
KUVA 241555Z AUTO 14011KT 10SM CLR 30/21 A2986 RMK AO2 T03010213
KUVA 241535Z AUTO 15009KT 120V180 10SM CLR 30/22 A2985 RMK AO2 T02960216
KUVA 241515Z AUTO 15010KT 10SM CLR 29/22 A2985 RMK AO2 T02850218
KUVA 241455Z AUTO 17007KT 10SM SCT020 28/22 A2986 RMK AO2 T02780218
KUVA 241435Z AUTO 16009KT 10SM BKN020 27/22 A2987 RMK AO2 T02730219
KUVA 241415Z AUTO 15013G17KT 10SM BKN020 27/22 A2987 RMK AO2 T02660219
KUVA 241355Z AUTO 14010KT 10SM BKN018 26/22 A2987 RMK AO2 T02620219
KUVA 241335Z AUTO 14008KT 10SM BKN016 OVC022 26/22 A2987 RMK AO2 T02550220
KUVA 241315Z AUTO 14009KT 7SM BKN013 BKN019 25/22 A2987 RMK AO2 T02500221
KUVA 241255Z AUTO 13007KT 7SM BKN013 25/22 A2987 RMK AO2 T02460220
KUVA 241235Z AUTO 14009KT 7SM OVC015 25/22 A2986 RMK AO2 T02450220
KUVA 241215Z AUTO 13007KT 7SM BKN017 24/22 A2986 RMK AO2 T02420220
KUVA 241155Z AUTO 13009KT 7SM SCT024 24/22 A2985 RMK AO2 T02430220 10275 20243
KUVA 241135Z AUTO 12007KT 10SM OVC024 25/22 A2986 RMK AO2 T02450221
KUVA 241115Z AUTO 13010KT 10SM OVC024 25/22 A2986 RMK AO2 T02460221
KUVA 241055Z AUTO 11008KT 10SM SCT024 SCT029 25/22 A2986 RMK AO2 T02450222
KUVA 241035Z AUTO 10007KT 10SM CLR 25/22 A2986 RMK AO2 T02460223
KUVA 241015Z AUTO 10009KT 10SM CLR 25/22 A2986 RMK AO2 T02470223
KUVA 240955Z AUTO 10009KT 10SM SCT021 SCT027 25/23 A2985 RMK AO2 T02510225
KUVA 240935Z AUTO 11009KT 10SM SCT026 26/23 A2985 RMK AO2 T02550225
KUVA 240915Z AUTO 12009KT 10SM CLR 26/23 A2984 RMK AO2 T02560225
KUVA 240855Z AUTO 11010KT 10SM CLR 26/23 A2984 RMK AO2 T02600227
KUVA 240835Z AUTO 12009KT 10SM SCT027 26/23 A2985 RMK AO2 T02620230
KUVA 240815Z AUTO 11010KT 10SM SCT022 SCT027 27/23 A2985 RMK AO2 T02650233
KUVA 240755Z AUTO 11007KT 10SM BKN022 BKN027 27/24 A2986 RMK AO2 T02670235
KUVA 240735Z AUTO 13009KT 10SM BKN022 BKN027 27/24 A2986 RMK AO2 T02700236
KUVA 240715Z AUTO 12010G15KT 10SM SCT018 27/24 A2984 RMK AO2 T02700240
KUVA 240655Z AUTO 12011G16KT 10SM SCT018 27/24 A2983 RMK AO2 T02700240
KUVA 240635Z AUTO 12011KT 10SM SCT016 27/24 A2982 RMK AO2 T02720242
KUVA 240615Z AUTO 13012G15KT 10SM CLR 27/24 A2982 RMK AO2 T02740243
KUVA 240555Z AUTO 12010G17KT 10SM CLR 28/25 A2982 RMK AO2 T02760245 10374 20276 403900245
KUVA 240535Z AUTO 13013G19KT 10SM CLR 28/25 A2981 RMK AO2 T02780245
KUVA 240515Z AUTO 12013G18KT 10SM CLR 28/25 A2982 RMK AO2 T02820246
KUVA 240455Z AUTO 12012KT 10SM CLR 29/25 A2982 RMK AO2 T02860247
KUVA 240435Z AUTO 12014G21KT 10SM CLR 29/25 A2981 RMK AO2 T02940246
KUVA 240415Z AUTO 13013KT 10SM CLR 30/25 A2980 RMK AO2 T02980247
KUVA 240355Z AUTO 12010G18KT 10SM CLR 31/24 A2978 RMK AO2 T03050242
KUVA 240335Z AUTO 12014G18KT 10SM CLR 31/23 A2976 RMK AO2 T03130230
KUVA 240315Z AUTO 13014G18KT 10SM CLR 32/21 A2975 RMK AO2 T03210211
KUVA 240255Z AUTO 13014G18KT 10SM CLR 33/21 A2974 RMK AO2 T03250208
KUVA 240235Z AUTO 13012G16KT 10SM CLR 33/21 A2973 RMK AO2 T03280206
KUVA 240215Z AUTO 13012G20KT 10SM CLR 33/21 A2972 RMK AO2 T03320207
KUVA 240155Z AUTO 13015KT 10SM CLR 34/21 A2971 RMK AO2 T03360210
KUVA 240135Z AUTO 12013G20KT 10SM CLR 34/21 A2971 RMK AO2 T03410211
KUVA 240115Z AUTO 12013G21KT 10SM CLR 35/21 A2971 RMK AO2 T03450212
KUVA 240055Z AUTO 12017G22KT 10SM CLR 35/21 A2971 RMK AO2 T03520214
KUVA 240035Z AUTO 11016G20KT 10SM CLR 36/22 A2971 RMK AO2 T03630215
KUVA 240015Z AUTO 12014G21KT 10SM CLR 37/21 A2970 RMK AO2 T03720211
KUVA 232355Z AUTO 13014G21KT 10SM CLR 38/21 A2970 RMK AO2 T03760209 10390 20335
KUVA 232335Z AUTO 13010KT 100V160 10SM CLR 38/21 A2970 RMK AO2 T03840207
KUVA 232315Z AUTO 14011G20KT 10SM CLR 38/21 A2970 RMK AO2 T03840207
KUVA 232255Z AUTO 12012G20KT 10SM CLR 39/21 A2970 RMK AO2 T03870207
KUVA 232235Z AUTO 15015G22KT 10SM CLR 39/21 A2971 RMK AO2 T03900206
KUVA 232215Z AUTO 14013G19KT 10SM CLR 38/21 A2971 RMK AO2 T03800205
KUVA 232155Z AUTO 14014G19KT 10SM CLR 39/21 A2972 RMK AO2 T03850207
KUVA 232135Z AUTO 17011G21KT 10SM CLR 38/21 A2972 RMK AO2 T03840209
KUVA 232115Z AUTO 14014G20KT 10SM CLR 38/21 A2973 RMK AO2 T03810208
KUVA 232055Z AUTO 12012G15KT 10SM CLR 38/21 A2973 RMK AO2 T03840207
KUVA 232035Z AUTO 13011G22KT 100V160 10SM CLR 38/21 A2974 RMK AO2 T03790206
KUVA 232015Z AUTO 16011G21KT 10SM CLR 37/21 A2975 RMK AO2 T03740205
KUVA 231955Z AUTO 15015G20KT 10SM CLR 37/21 A2976 RMK AO2 T03700208
KUVA 231935Z AUTO 17013G17KT 10SM CLR 37/21 A2977 RMK AO2 T03690210
KUVA 231915Z AUTO 14014G20KT 10SM CLR 36/21 A2977 RMK AO2 T03560212
KUVA 231855Z AUTO 15013G17KT 10SM CLR 36/21 A2978 RMK AO2 T03550212
KUVA 231835Z AUTO 15012G15KT 10SM CLR 35/22 A2979 RMK AO2 T03480215
KUVA 231815Z AUTO 14011G16KT 10SM SCT045 35/22 A2981 RMK AO2 T03460218
KUVA 231755Z AUTO 13013G17KT 10SM SCT043 34/22 A2981 RMK AO2 T03360218 10339 20245
KUVA 231735Z AUTO 17011G17KT 10SM SCT043 34/22 A2982 RMK AO2 T03350217
KUVA 231715Z AUTO 19010G19KT 10SM SCT039 33/22 A2983 RMK AO2 T03300216
KUVA 231655Z AUTO 18014G19KT 10SM SCT037 32/22 A2984 RMK AO2 T03230216
KUVA 231635Z AUTO 16015G18KT 10SM SCT035 32/22 A2984 RMK AO2 T03190221
KUVA 231615Z AUTO 18010G18KT 10SM SCT030 SCT035 31/22 A2984 RMK AO2 T03140220
KUVA 231555Z AUTO 16011G15KT 10SM SCT025 SCT031 31/22 A2984 RMK AO2 T03080223
KUVA 231535Z AUTO 15012KT 10SM SCT025 30/23 A2984 RMK AO2 T03020225
KUVA 231515Z AUTO 14013G16KT 10SM CLR 29/22 A2984 RMK AO2 T02910224
KUVA 231455Z AUTO 14014KT 10SM CLR 29/22 A2984 RMK AO2 T02860224
KUVA 231435Z AUTO 14013KT 10SM CLR 28/23 A2985 RMK AO2 T02800225
KUVA 231415Z AUTO 14012G15KT 10SM SCT015 27/22 A2985 RMK AO2 T02730223
KUVA 231355Z AUTO 13011KT 10SM SCT015 27/22 A2985 RMK AO2 T02680222
KUVA 231335Z AUTO 14013KT 10SM SCT015 26/22 A2985 RMK AO2 T02590220
KUVA 231315Z AUTO 15010KT 10SM SCT015 26/22 A2984 RMK AO2 T02580222
KUVA 231255Z AUTO 14009KT 10SM CLR 25/23 A2984 RMK AO2 T02530225
KUVA 231235Z AUTO 14008KT 10SM CLR 25/23 A2984 RMK AO2 T02490225
KUVA 231215Z AUTO 13006KT 10SM CLR 25/23 A2983 RMK AO2 T02460225
KUVA 231155Z AUTO 13004KT 10SM CLR 25/23 A2983 RMK AO2 T02450225 10281 20245
KUVA 231135Z AUTO 14006KT 10SM CLR 25/23 A2983 RMK AO2 T02450225
KUVA 231115Z AUTO 13004KT 10SM CLR 25/23 A2983 RMK AO2 T02480227
KUVA 231055Z AUTO 14006KT 10SM CLR 25/23 A2982 RMK AO2 T02510228
KUVA 231035Z AUTO 14006KT 10SM CLR 25/23 A2982 RMK AO2 T02520230
KUVA 231015Z AUTO 14007KT 10SM CLR 26/23 A2982 RMK AO2 T02550230
KUVA 230955Z AUTO 15009KT 10SM CLR 26/23 A2981 RMK AO2 T02580230
KUVA 230935Z AUTO 15007KT 10SM CLR 26/23 A2982 RMK AO2 T02600231
KUVA 230915Z AUTO 15008KT 10SM CLR 26/23 A2982 RMK AO2 T02620233
KUVA 230855Z AUTO 15011KT 10SM CLR 27/24 A2981 RMK AO2 T02650235